sensor_id;sensor_type;location;lat;lon;timestamp;P1;durP1;ratioP1;P2;durP2;ratioP2
1577;SDS011;57623;53.608;10.004;2024-03-23T00:53:42;13.50;;;3.80;;
1577;SDS011;57623;53.608;10.004;2024-03-23T00:56:09;9.93;;;3.33;;
1577;SDS011;57623;53.608;10.004;2024-03-23T00:58:35;14.20;;;4.10;;
1577;SDS011;57623;53.608;10.004;2024-03-23T01:01:03;12.67;;;3.77;;
1577;SDS011;57623;53.608;10.004;2024-03-23T01:03:29;12.87;;;3.90;;
1577;SDS011;57623;53.608;10.004;2024-03-23T01:05:58;10.90;;;4.47;;
1577;SDS011;57623;53.608;10.004;2024-03-23T01:08:25;13.80;;;3.90;;
1577;SDS011;57623;53.608;10.004;2024-03-23T01:10:56;20.33;;;4.30;;
1577;SDS011;57623;53.608;10.004;2024-03-23T01:13:23;11.17;;;3.90;;
1577;SDS011;57623;53.608;10.004;2024-03-23T01:15:51;11.07;;;4.20;;
1577;SDS011;57623;53.608;10.004;2024-03-23T01:18:19;15.27;;;4.10;;
1577;SDS011;57623;53.608;10.004;2024-03-23T01:20:45;15.13;;;6.53;;
1577;SDS011;57623;53.608;10.004;2024-03-23T01:23:13;15.23;;;3.47;;
1577;SDS011;57623;53.608;10.004;2024-03-23T01:25:39;11.00;;;3.70;;
1577;SDS011;57623;53.608;10.004;2024-03-23T01:28:08;14.93;;;4.20;;
1577;SDS011;57623;53.608;10.004;2024-03-23T01:30:34;14.33;;;3.83;;
1577;SDS011;57623;53.608;10.004;2024-03-23T01:33:02;11.87;;;4.00;;
1577;SDS011;57623;53.608;10.004;2024-03-23T01:35:28;16.23;;;4.30;;
1577;SDS011;57623;53.608;10.004;2024-03-23T01:37:55;16.37;;;4.10;;
1577;SDS011;57623;53.608;10.004;2024-03-23T01:40:21;14.43;;;4.30;;
1577;SDS011;57623;53.608;10.004;2024-03-23T01:42:55;17.87;;;4.60;;
1577;SDS011;57623;53.608;10.004;2024-03-23T01:45:22;16.77;;;4.80;;
1577;SDS011;57623;53.608;10.004;2024-03-23T01:47:49;11.07;;;3.87;;
1577;SDS011;57623;53.608;10.004;2024-03-23T01:50:16;14.53;;;4.00;;
1577;SDS011;57623;53.608;10.004;2024-03-23T01:52:43;13.03;;;3.97;;
1577;SDS011;57623;53.608;10.004;2024-03-23T01:55:09;11.20;;;3.90;;
1577;SDS011;57623;53.608;10.004;2024-03-23T01:57:37;14.23;;;5.63;;
1577;SDS011;57623;53.608;10.004;2024-03-23T02:00:04;13.87;;;3.90;;
1577;SDS011;57623;53.608;10.004;2024-03-23T02:02:33;12.57;;;4.17;;
1577;SDS011;57623;53.608;10.004;2024-03-23T02:04:59;9.63;;;4.20;;
1577;SDS011;57623;53.608;10.004;2024-03-23T02:07:27;12.10;;;3.57;;
1577;SDS011;57623;53.608;10.004;2024-03-23T02:09:53;12.43;;;3.63;;
1577;SDS011;57623;53.608;10.004;2024-03-23T02:12:21;14.60;;;3.70;;
1577;SDS011;57623;53.608;10.004;2024-03-23T02:14:47;11.80;;;3.13;;
1577;SDS011;57623;53.608;10.004;2024-03-23T02:17:14;13.37;;;3.67;;
1577;SDS011;57623;53.608;10.004;2024-03-23T02:19:41;10.60;;;3.27;;
1577;SDS011;57623;53.608;10.004;2024-03-23T02:22:08;8.83;;;4.30;;
1577;SDS011;57623;53.608;10.004;2024-03-23T02:24:37;13.13;;;4.10;;
1577;SDS011;57623;53.608;10.004;2024-03-23T02:27:04;12.83;;;5.43;;
1577;SDS011;57623;53.608;10.004;2024-03-23T02:29:30;13.23;;;3.83;;
1577;SDS011;57623;53.608;10.004;2024-03-23T02:31:57;15.17;;;5.00;;
1577;SDS011;57623;53.608;10.004;2024-03-23T02:34:24;12.73;;;4.10;;
1577;SDS011;57623;53.608;10.004;2024-03-23T02:36:51;9.40;;;4.50;;
1577;SDS011;57623;53.608;10.004;2024-03-23T02:39:17;12.13;;;4.20;;
1577;SDS011;57623;53.608;10.004;2024-03-23T02:41:45;10.90;;;3.90;;
1577;SDS011;57623;53.608;10.004;2024-03-23T02:44:13;9.30;;;3.63;;
1577;SDS011;57623;53.608;10.004;2024-03-23T02:46:40;10.53;;;3.87;;
1577;SDS011;57623;53.608;10.004;2024-03-23T02:49:06;10.00;;;5.13;;
1577;SDS011;57623;53.608;10.004;2024-03-23T02:51:33;15.90;;;4.23;;
1577;SDS011;57623;53.608;10.004;2024-03-23T02:53:59;16.60;;;5.00;;
1577;SDS011;57623;53.608;10.004;2024-03-23T02:56:26;8.63;;;3.70;;
1577;SDS011;57623;53.608;10.004;2024-03-23T02:58:54;15.07;;;5.07;;
1577;SDS011;57623;53.608;10.004;2024-03-23T03:01:21;12.10;;;4.17;;
1577;SDS011;57623;53.608;10.004;2024-03-23T03:03:47;14.30;;;4.10;;
1577;SDS011;57623;53.608;10.004;2024-03-23T03:06:22;10.83;;;3.83;;
1577;SDS011;57623;53.608;10.004;2024-03-23T03:08:48;10.30;;;3.70;;
1577;SDS011;57623;53.608;10.004;2024-03-23T03:11:15;13.70;;;4.20;;
1577;SDS011;57623;53.608;10.004;2024-03-23T03:13:42;10.10;;;3.57;;
1577;SDS011;57623;53.608;10.004;2024-03-23T03:16:10;16.17;;;4.63;;
1577;SDS011;57623;53.608;10.004;2024-03-23T03:18:36;9.90;;;3.83;;
1577;SDS011;57623;53.608;10.004;2024-03-23T03:21:03;14.77;;;4.40;;
1577;SDS011;57623;53.608;10.004;2024-03-23T03:23:31;15.70;;;5.07;;
1577;SDS011;57623;53.608;10.004;2024-03-23T03:25:58;8.30;;;3.60;;
1577;SDS011;57623;53.608;10.004;2024-03-23T03:28:24;12.57;;;4.47;;
1577;SDS011;57623;53.608;10.004;2024-03-23T03:30:55;8.83;;;3.70;;
1577;SDS011;57623;53.608;10.004;2024-03-23T03:33:23;10.07;;;3.80;;
1577;SDS011;57623;53.608;10.004;2024-03-23T03:35:50;7.80;;;3.97;;
1577;SDS011;57623;53.608;10.004;2024-03-23T03:38:18;10.17;;;3.53;;
1577;SDS011;57623;53.608;10.004;2024-03-23T03:40:45;11.13;;;3.97;;
1577;SDS011;57623;53.608;10.004;2024-03-23T03:43:11;11.93;;;3.97;;
1577;SDS011;57623;53.608;10.004;2024-03-23T03:45:38;11.17;;;4.77;;
1577;SDS011;57623;53.608;10.004;2024-03-23T03:48:04;16.70;;;4.13;;
1577;SDS011;57623;53.608;10.004;2024-03-23T03:50:33;10.80;;;3.10;;
1577;SDS011;57623;53.608;10.004;2024-03-23T03:53:00;14.50;;;4.53;;
1577;SDS011;57623;53.608;10.004;2024-03-23T03:55:27;10.07;;;3.23;;
1577;SDS011;57623;53.608;10.004;2024-03-23T03:57:53;8.97;;;3.83;;
1577;SDS011;57623;53.608;10.004;2024-03-23T04:00:20;12.20;;;3.83;;
1577;SDS011;57623;53.608;10.004;2024-03-23T04:02:46;13.97;;;4.00;;
1577;SDS011;57623;53.608;10.004;2024-03-23T04:05:13;13.57;;;4.80;;
1577;SDS011;57623;53.608;10.004;2024-03-23T04:07:42;18.77;;;4.70;;
1577;SDS011;57623;53.608;10.004;2024-03-23T04:10:09;13.27;;;4.23;;
1577;SDS011;57623;53.608;10.004;2024-03-23T04:12:35;11.97;;;4.27;;
1577;SDS011;57623;53.608;10.004;2024-03-23T04:15:02;15.20;;;4.60;;
1577;SDS011;57623;53.608;10.004;2024-03-23T04:17:30;11.83;;;4.20;;
1577;SDS011;57623;53.608;10.004;2024-03-23T04:19:59;7.70;;;3.50;;
1577;SDS011;57623;53.608;10.004;2024-03-23T04:22:26;10.27;;;3.63;;
1577;SDS011;57623;53.608;10.004;2024-03-23T04:24:55;8.50;;;3.57;;
1577;SDS011;57623;53.608;10.004;2024-03-23T04:27:22;10.83;;;3.57;;
1577;SDS011;57623;53.608;10.004;2024-03-23T04:29:49;10.73;;;3.90;;
1577;SDS011;57623;53.608;10.004;2024-03-23T04:32:16;11.27;;;3.47;;
1577;SDS011;57623;53.608;10.004;2024-03-23T04:34:43;7.53;;;3.33;;
1577;SDS011;57623;53.608;10.004;2024-03-23T04:37:10;13.30;;;4.13;;
1577;SDS011;57623;53.608;10.004;2024-03-23T04:39:37;13.60;;;4.10;;
1577;SDS011;57623;53.608;10.004;2024-03-23T04:42:06;9.40;;;3.40;;
1577;SDS011;57623;53.608;10.004;2024-03-23T04:44:33;9.43;;;4.23;;
1577;SDS011;57623;53.608;10.004;2024-03-23T04:47:00;11.30;;;3.80;;
1577;SDS011;57623;53.608;10.004;2024-03-23T04:49:27;14.33;;;4.40;;
1577;SDS011;57623;53.608;10.004;2024-03-23T04:51:54;12.03;;;4.20;;
1577;SDS011;57623;53.608;10.004;2024-03-23T04:54:22;10.97;;;4.60;;
1577;SDS011;57623;53.608;10.004;2024-03-23T04:56:49;12.23;;;3.63;;
1577;SDS011;57623;53.608;10.004;2024-03-23T04:59:17;12.30;;;4.40;;
1577;SDS011;57623;53.608;10.004;2024-03-23T05:01:43;12.57;;;3.90;;
1577;SDS011;57623;53.608;10.004;2024-03-23T05:04:10;11.37;;;3.80;;
1577;SDS011;57623;53.608;10.004;2024-03-23T05:06:36;12.20;;;3.43;;
1577;SDS011;57623;53.608;10.004;2024-03-23T05:09:03;12.37;;;3.80;;
1577;SDS011;57623;53.608;10.004;2024-03-23T05:11:31;11.93;;;3.50;;
1577;SDS011;57623;53.608;10.004;2024-03-23T05:13:58;9.40;;;3.20;;
1577;SDS011;57623;53.608;10.004;2024-03-23T05:16:26;11.23;;;3.40;;
1577;SDS011;57623;53.608;10.004;2024-03-23T05:18:53;9.00;;;3.57;;
1577;SDS011;57623;53.608;10.004;2024-03-23T05:21:19;8.33;;;3.30;;
1577;SDS011;57623;53.608;10.004;2024-03-23T05:23:46;12.13;;;4.30;;
1577;SDS011;57623;53.608;10.004;2024-03-23T05:26:13;12.50;;;3.73;;
1577;SDS011;57623;53.608;10.004;2024-03-23T05:28:40;9.63;;;3.50;;
1577;SDS011;57623;53.608;10.004;2024-03-23T05:31:06;14.20;;;3.73;;
1577;SDS011;57623;53.608;10.004;2024-03-23T05:33:35;9.20;;;3.57;;
1577;SDS011;57623;53.608;10.004;2024-03-23T05:36:03;10.40;;;3.97;;
1577;SDS011;57623;53.608;10.004;2024-03-23T05:38:31;11.53;;;4.30;;
1577;SDS011;57623;53.608;10.004;2024-03-23T05:40:57;9.10;;;3.70;;
1577;SDS011;57623;53.608;10.004;2024-03-23T05:43:25;10.83;;;3.40;;
1577;SDS011;57623;53.608;10.004;2024-03-23T05:45:53;11.37;;;3.67;;
1577;SDS011;57623;53.608;10.004;2024-03-23T05:48:20;11.60;;;3.77;;
1577;SDS011;57623;53.608;10.004;2024-03-23T05:50:48;13.27;;;5.00;;
1577;SDS011;57623;53.608;10.004;2024-03-23T05:53:15;12.00;;;2.97;;
1577;SDS011;57623;53.608;10.004;2024-03-23T05:55:41;10.30;;;3.70;;
1577;SDS011;57623;53.608;10.004;2024-03-23T05:58:09;9.43;;;3.30;;
1577;SDS011;57623;53.608;10.004;2024-03-23T06:00:35;9.77;;;3.40;;
1577;SDS011;57623;53.608;10.004;2024-03-23T06:03:02;12.20;;;3.90;;
1577;SDS011;57623;53.608;10.004;2024-03-23T06:05:29;15.43;;;3.70;;
1577;SDS011;57623;53.608;10.004;2024-03-23T06:07:57;10.03;;;3.77;;
1577;SDS011;57623;53.608;10.004;2024-03-23T06:10:23;11.87;;;4.30;;
1577;SDS011;57623;53.608;10.004;2024-03-23T06:12:50;13.30;;;4.67;;
1577;SDS011;57623;53.608;10.004;2024-03-23T06:15:17;10.37;;;3.80;;
1577;SDS011;57623;53.608;10.004;2024-03-23T06:17:44;15.00;;;4.53;;
1577;SDS011;57623;53.608;10.004;2024-03-23T06:20:12;9.93;;;3.60;;
1577;SDS011;57623;53.608;10.004;2024-03-23T06:22:39;10.57;;;3.77;;
1577;SDS011;57623;53.608;10.004;2024-03-23T06:25:07;9.97;;;3.60;;
1577;SDS011;57623;53.608;10.004;2024-03-23T06:27:34;13.53;;;3.70;;
1577;SDS011;57623;53.608;10.004;2024-03-23T06:30:00;6.67;;;3.67;;
1577;SDS011;57623;53.608;10.004;2024-03-23T06:32:28;9.07;;;3.37;;
1577;SDS011;57623;53.608;10.004;2024-03-23T06:34:54;10.57;;;3.33;;
1577;SDS011;57623;53.608;10.004;2024-03-23T06:37:21;12.53;;;4.43;;
1577;SDS011;57623;53.608;10.004;2024-03-23T06:39:47;10.00;;;3.30;;
1577;SDS011;57623;53.608;10.004;2024-03-23T06:42:16;8.50;;;3.70;;
1577;SDS011;57623;53.608;10.004;2024-03-23T06:44:42;9.70;;;3.57;;
1577;SDS011;57623;53.608;10.004;2024-03-23T06:47:10;11.17;;;4.20;;
1577;SDS011;57623;53.608;10.004;2024-03-23T06:49:36;10.90;;;4.53;;
1577;SDS011;57623;53.608;10.004;2024-03-23T06:52:03;11.13;;;3.30;;
1577;SDS011;57623;53.608;10.004;2024-03-23T06:54:30;10.43;;;4.13;;
1577;SDS011;57623;53.608;10.004;2024-03-23T06:56:57;9.83;;;4.03;;
1577;SDS011;57623;53.608;10.004;2024-03-23T06:59:24;11.57;;;3.70;;
1577;SDS011;57623;53.608;10.004;2024-03-23T07:01:51;14.60;;;4.07;;
1577;SDS011;57623;53.608;10.004;2024-03-23T07:04:17;14.37;;;4.27;;
1577;SDS011;57623;53.608;10.004;2024-03-23T07:06:45;13.60;;;4.03;;
1577;SDS011;57623;53.608;10.004;2024-03-23T07:09:11;12.43;;;4.40;;
1577;SDS011;57623;53.608;10.004;2024-03-23T07:11:38;9.93;;;3.63;;
1577;SDS011;57623;53.608;10.004;2024-03-23T07:14:04;13.00;;;5.13;;
1577;SDS011;57623;53.608;10.004;2024-03-23T07:16:33;9.20;;;3.40;;
1577;SDS011;57623;53.608;10.004;2024-03-23T07:18:59;14.50;;;3.80;;
1577;SDS011;57623;53.608;10.004;2024-03-23T07:21:27;8.73;;;4.53;;
1577;SDS011;57623;53.608;10.004;2024-03-23T07:23:53;10.17;;;4.03;;
1577;SDS011;57623;53.608;10.004;2024-03-23T07:26:20;8.20;;;3.33;;
1577;SDS011;57623;53.608;10.004;2024-03-23T07:28:46;12.37;;;3.60;;
1577;SDS011;57623;53.608;10.004;2024-03-23T07:31:14;14.30;;;4.03;;
1577;SDS011;57623;53.608;10.004;2024-03-23T07:33:45;13.90;;;4.77;;
1577;SDS011;57623;53.608;10.004;2024-03-23T07:36:13;11.77;;;3.67;;
1577;SDS011;57623;53.608;10.004;2024-03-23T07:38:40;11.87;;;4.27;;
1577;SDS011;57623;53.608;10.004;2024-03-23T07:41:08;13.57;;;4.87;;
1577;SDS011;57623;53.608;10.004;2024-03-23T07:43:36;10.77;;;3.50;;
1577;SDS011;57623;53.608;10.004;2024-03-23T07:46:04;9.00;;;2.90;;
1577;SDS011;57623;53.608;10.004;2024-03-23T07:48:30;8.93;;;3.77;;
1577;SDS011;57623;53.608;10.004;2024-03-23T07:51:00;10.90;;;3.43;;
1577;SDS011;57623;53.608;10.004;2024-03-23T07:53:27;12.27;;;3.80;;
1577;SDS011;57623;53.608;10.004;2024-03-23T07:55:55;9.97;;;4.40;;
1577;SDS011;57623;53.608;10.004;2024-03-23T07:58:22;8.97;;;3.20;;
1577;SDS011;57623;53.608;10.004;2024-03-23T08:00:49;6.70;;;3.47;;
1577;SDS011;57623;53.608;10.004;2024-03-23T08:03:15;14.57;;;3.47;;
1577;SDS011;57623;53.608;10.004;2024-03-23T08:05:42;9.50;;;4.30;;
1577;SDS011;57623;53.608;10.004;2024-03-23T08:08:09;10.73;;;4.20;;
1577;SDS011;57623;53.608;10.004;2024-03-23T08:10:37;16.83;;;3.93;;
1577;SDS011;57623;53.608;10.004;2024-03-23T08:13:12;10.33;;;3.60;;
1577;SDS011;57623;53.608;10.004;2024-03-23T08:15:39;13.90;;;4.13;;
1577;SDS011;57623;53.608;10.004;2024-03-23T08:18:05;11.00;;;4.17;;
1577;SDS011;57623;53.608;10.004;2024-03-23T08:20:32;12.13;;;3.97;;
1577;SDS011;57623;53.608;10.004;2024-03-23T08:22:58;8.40;;;3.30;;
1577;SDS011;57623;53.608;10.004;2024-03-23T08:25:26;9.40;;;5.20;;
1577;SDS011;57623;53.608;10.004;2024-03-23T08:27:52;9.43;;;3.90;;
1577;SDS011;57623;53.608;10.004;2024-03-23T08:30:19;10.27;;;3.40;;
1577;SDS011;57623;53.608;10.004;2024-03-23T08:32:45;7.80;;;3.43;;
1577;SDS011;57623;53.608;10.004;2024-03-23T08:35:13;12.40;;;3.43;;
1577;SDS011;57623;53.608;10.004;2024-03-23T08:37:39;8.97;;;3.53;;
1577;SDS011;57623;53.608;10.004;2024-03-23T08:40:06;9.97;;;3.90;;
1577;SDS011;57623;53.608;10.004;2024-03-23T08:42:35;9.80;;;3.53;;
1577;SDS011;57623;53.608;10.004;2024-03-23T08:45:02;11.00;;;3.50;;
1577;SDS011;57623;53.608;10.004;2024-03-23T08:47:29;8.73;;;3.30;;
1577;SDS011;57623;53.608;10.004;2024-03-23T08:49:56;7.70;;;3.47;;
1577;SDS011;57623;53.608;10.004;2024-03-23T08:52:23;9.07;;;3.33;;
1577;SDS011;57623;53.608;10.004;2024-03-23T08:54:52;8.53;;;3.03;;
1577;SDS011;57623;53.608;10.004;2024-03-23T08:57:18;11.40;;;3.47;;
1577;SDS011;57623;53.608;10.004;2024-03-23T08:59:47;7.00;;;3.10;;
1577;SDS011;57623;53.608;10.004;2024-03-23T09:02:13;8.43;;;3.37;;
1577;SDS011;57623;53.608;10.004;2024-03-23T09:04:40;9.13;;;3.00;;
1577;SDS011;57623;53.608;10.004;2024-03-23T09:07:06;9.33;;;3.70;;
1577;SDS011;57623;53.608;10.004;2024-03-23T09:09:33;10.07;;;3.50;;
1577;SDS011;57623;53.608;10.004;2024-03-23T09:11:59;7.57;;;2.97;;
1577;SDS011;57623;53.608;10.004;2024-03-23T09:14:26;7.50;;;2.80;;
1577;SDS011;57623;53.608;10.004;2024-03-23T09:16:54;8.43;;;3.30;;
1577;SDS011;57623;53.608;10.004;2024-03-23T09:19:21;10.37;;;3.47;;
1577;SDS011;57623;53.608;10.004;2024-03-23T09:21:47;6.90;;;2.60;;
1577;SDS011;57623;53.608;10.004;2024-03-23T09:24:15;9.67;;;3.23;;
1577;SDS011;57623;53.608;10.004;2024-03-23T09:26:41;11.07;;;2.93;;
1577;SDS011;57623;53.608;10.004;2024-03-23T09:29:08;8.40;;;2.83;;
1577;SDS011;57623;53.608;10.004;2024-03-23T09:31:34;7.20;;;2.43;;
1577;SDS011;57623;53.608;10.004;2024-03-23T09:34:04;6.57;;;2.40;;
1577;SDS011;57623;53.608;10.004;2024-03-23T09:36:31;6.37;;;2.57;;
1577;SDS011;57623;53.608;10.004;2024-03-23T09:38:58;10.93;;;3.57;;
1577;SDS011;57623;53.608;10.004;2024-03-23T09:41:24;9.30;;;2.87;;
1577;SDS011;57623;53.608;10.004;2024-03-23T09:43:52;4.43;;;2.50;;
1577;SDS011;57623;53.608;10.004;2024-03-23T09:46:18;4.53;;;2.60;;
1577;SDS011;57623;53.608;10.004;2024-03-23T09:48:46;4.80;;;1.90;;
1577;SDS011;57623;53.608;10.004;2024-03-23T09:51:14;10.67;;;3.00;;
1577;SDS011;57623;53.608;10.004;2024-03-23T09:53:41;9.23;;;2.50;;
1577;SDS011;57623;53.608;10.004;2024-03-23T09:56:07;3.43;;;2.03;;
1577;SDS011;57623;53.608;10.004;2024-03-23T09:58:36;6.67;;;2.10;;
1577;SDS011;57623;53.608;10.004;2024-03-23T10:01:02;5.80;;;2.57;;
1577;SDS011;57623;53.608;10.004;2024-03-23T10:03:30;4.20;;;2.33;;
1577;SDS011;57623;53.608;10.004;2024-03-23T10:06:00;7.47;;;2.23;;
1577;SDS011;57623;53.608;10.004;2024-03-23T10:08:29;6.30;;;2.63;;
1577;SDS011;57623;53.608;10.004;2024-03-23T10:10:58;9.80;;;2.80;;
1577;SDS011;57623;53.608;10.004;2024-03-23T10:13:38;8.77;;;2.80;;
1577;SDS011;57623;53.608;10.004;2024-03-23T10:16:08;7.23;;;3.00;;
1577;SDS011;57623;53.608;10.004;2024-03-23T10:18:36;7.67;;;2.60;;
1577;SDS011;57623;53.608;10.004;2024-03-23T10:21:07;7.27;;;3.50;;
1577;SDS011;57623;53.608;10.004;2024-03-23T10:23:37;5.03;;;2.77;;
1577;SDS011;57623;53.608;10.004;2024-03-23T10:26:15;9.70;;;2.50;;
1577;SDS011;57623;53.608;10.004;2024-03-23T10:28:52;7.37;;;2.83;;
1577;SDS011;57623;53.608;10.004;2024-03-23T10:31:22;10.03;;;2.90;;
1577;SDS011;57623;53.608;10.004;2024-03-23T10:33:49;5.67;;;2.80;;
1577;SDS011;57623;53.608;10.004;2024-03-23T10:36:15;7.40;;;2.50;;
1577;SDS011;57623;53.608;10.004;2024-03-23T10:38:45;11.47;;;3.87;;
1577;SDS011;57623;53.608;10.004;2024-03-23T10:41:12;4.80;;;2.27;;
1577;SDS011;57623;53.608;10.004;2024-03-23T10:43:39;7.60;;;1.83;;
1577;SDS011;57623;53.608;10.004;2024-03-23T10:46:05;6.17;;;2.20;;
1577;SDS011;57623;53.608;10.004;2024-03-23T10:48:33;3.97;;;2.00;;
1577;SDS011;57623;53.608;10.004;2024-03-23T10:50:59;5.90;;;2.20;;
1577;SDS011;57623;53.608;10.004;2024-03-23T10:53:26;6.20;;;2.27;;
1577;SDS011;57623;53.608;10.004;2024-03-23T10:55:55;5.30;;;2.30;;
1577;SDS011;57623;53.608;10.004;2024-03-23T10:58:23;4.87;;;2.37;;
1577;SDS011;57623;53.608;10.004;2024-03-23T11:00:54;6.40;;;2.03;;
1577;SDS011;57623;53.608;10.004;2024-03-23T11:03:31;6.27;;;1.80;;
1577;SDS011;57623;53.608;10.004;2024-03-23T11:06:01;3.07;;;1.50;;
1577;SDS011;57623;53.608;10.004;2024-03-23T11:08:30;4.30;;;1.50;;
1577;SDS011;57623;53.608;10.004;2024-03-23T11:13:51;3.73;;;1.67;;
1577;SDS011;57623;53.608;10.004;2024-03-23T11:16:21;3.80;;;1.70;;
1577;SDS011;57623;53.608;10.004;2024-03-23T11:18:48;7.80;;;1.70;;
1577;SDS011;57623;53.608;10.004;2024-03-23T11:24:19;5.87;;;1.80;;
1577;SDS011;57623;53.608;10.004;2024-03-23T11:26:47;4.60;;;2.07;;
1577;SDS011;57623;53.608;10.004;2024-03-23T11:29:15;4.07;;;1.83;;
1577;SDS011;57623;53.608;10.004;2024-03-23T11:31:46;3.23;;;1.63;;
1577;SDS011;57623;53.608;10.004;2024-03-23T11:34:13;5.20;;;1.87;;
1577;SDS011;57623;53.608;10.004;2024-03-23T11:36:42;2.17;;;1.70;;
1577;SDS011;57623;53.608;10.004;2024-03-23T11:39:12;3.80;;;1.90;;
1577;SDS011;57623;53.608;10.004;2024-03-23T11:41:47;4.50;;;2.10;;
1577;SDS011;57623;53.608;10.004;2024-03-23T11:44:16;5.70;;;2.03;;
1577;SDS011;57623;53.608;10.004;2024-03-23T11:46:44;2.70;;;1.70;;
1577;SDS011;57623;53.608;10.004;2024-03-23T11:49:20;5.20;;;2.40;;
1577;SDS011;57623;53.608;10.004;2024-03-23T11:51:48;5.73;;;1.93;;
1577;SDS011;57623;53.608;10.004;2024-03-23T11:54:15;6.23;;;1.73;;
1577;SDS011;57623;53.608;10.004;2024-03-23T11:56:53;5.77;;;2.37;;
1577;SDS011;57623;53.608;10.004;2024-03-23T11:59:31;5.27;;;2.30;;
1577;SDS011;57623;53.608;10.004;2024-03-23T12:01:59;2.77;;;1.43;;
1577;SDS011;57623;53.608;10.004;2024-03-23T12:04:25;3.17;;;0.90;;
1577;SDS011;57623;53.608;10.004;2024-03-23T12:09:34;1.00;;;0.90;;
1577;SDS011;57623;53.608;10.004;2024-03-23T12:12:05;2.77;;;1.00;;
1577;SDS011;57623;53.608;10.004;2024-03-23T12:14:34;1.63;;;0.90;;
1577;SDS011;57623;53.608;10.004;2024-03-23T12:17:11;1.73;;;0.80;;
1577;SDS011;57623;53.608;10.004;2024-03-23T12:19:38;2.00;;;1.10;;
1577;SDS011;57623;53.608;10.004;2024-03-23T12:22:05;1.93;;;0.93;;
1577;SDS011;57623;53.608;10.004;2024-03-23T12:24:32;3.40;;;1.20;;
1577;SDS011;57623;53.608;10.004;2024-03-23T12:27:01;5.73;;;1.30;;
1577;SDS011;57623;53.608;10.004;2024-03-23T12:29:28;2.37;;;1.50;;
1577;SDS011;57623;53.608;10.004;2024-03-23T12:31:58;2.67;;;1.53;;
1577;SDS011;57623;53.608;10.004;2024-03-23T12:34:25;1.40;;;1.17;;
1577;SDS011;57623;53.608;10.004;2024-03-23T12:36:52;2.30;;;1.17;;
1577;SDS011;57623;53.608;10.004;2024-03-23T12:39:18;2.73;;;1.40;;
1577;SDS011;57623;53.608;10.004;2024-03-23T12:41:46;1.87;;;0.90;;
1577;SDS011;57623;53.608;10.004;2024-03-23T12:44:12;1.30;;;0.70;;
1577;SDS011;57623;53.608;10.004;2024-03-23T12:46:40;0.60;;;0.60;;
1577;SDS011;57623;53.608;10.004;2024-03-23T12:49:08;1.23;;;0.60;;
1577;SDS011;57623;53.608;10.004;2024-03-23T12:51:35;0.90;;;0.40;;
1577;SDS011;57623;53.608;10.004;2024-03-23T12:54:01;0.50;;;0.50;;
1577;SDS011;57623;53.608;10.004;2024-03-23T12:56:28;1.10;;;0.70;;
1577;SDS011;57623;53.608;10.004;2024-03-23T12:58:55;1.23;;;0.53;;
1577;SDS011;57623;53.608;10.004;2024-03-23T13:01:22;1.47;;;0.63;;
1577;SDS011;57623;53.608;10.004;2024-03-23T13:03:48;1.63;;;0.77;;
1577;SDS011;57623;53.608;10.004;2024-03-23T13:06:17;1.17;;;0.60;;
1577;SDS011;57623;53.608;10.004;2024-03-23T13:08:44;0.43;;;0.43;;
1577;SDS011;57623;53.608;10.004;2024-03-23T13:11:12;1.10;;;0.70;;
1577;SDS011;57623;53.608;10.004;2024-03-23T13:13:39;1.37;;;0.77;;
1577;SDS011;57623;53.608;10.004;2024-03-23T13:16:07;1.20;;;0.70;;
1577;SDS011;57623;53.608;10.004;2024-03-23T13:18:33;0.80;;;0.60;;
1577;SDS011;57623;53.608;10.004;2024-03-23T13:21:00;1.10;;;0.70;;
1577;SDS011;57623;53.608;10.004;2024-03-23T13:23:29;1.23;;;0.83;;
1577;SDS011;57623;53.608;10.004;2024-03-23T13:25:56;1.50;;;0.73;;
1577;SDS011;57623;53.608;10.004;2024-03-23T13:28:22;1.30;;;1.00;;
1577;SDS011;57623;53.608;10.004;2024-03-23T13:30:50;2.17;;;0.73;;
1577;SDS011;57623;53.608;10.004;2024-03-23T13:33:17;1.37;;;1.00;;
1577;SDS011;57623;53.608;10.004;2024-03-23T13:35:51;2.27;;;1.10;;
1577;SDS011;57623;53.608;10.004;2024-03-23T13:38:17;1.43;;;1.27;;
1577;SDS011;57623;53.608;10.004;2024-03-23T13:40:52;2.33;;;1.30;;
1577;SDS011;57623;53.608;10.004;2024-03-23T13:43:19;3.33;;;1.50;;
1577;SDS011;57623;53.608;10.004;2024-03-23T13:45:47;1.30;;;1.20;;
1577;SDS011;57623;53.608;10.004;2024-03-23T13:48:13;3.50;;;1.43;;
1577;SDS011;57623;53.608;10.004;2024-03-23T13:50:41;2.07;;;1.40;;
1577;SDS011;57623;53.608;10.004;2024-03-23T13:53:07;3.27;;;1.47;;
1577;SDS011;57623;53.608;10.004;2024-03-23T13:55:34;2.47;;;1.20;;
1577;SDS011;57623;53.608;10.004;2024-03-23T13:58:02;1.43;;;1.33;;
1577;SDS011;57623;53.608;10.004;2024-03-23T14:00:30;2.40;;;1.40;;
1577;SDS011;57623;53.608;10.004;2024-03-23T14:02:57;1.50;;;1.13;;
1577;SDS011;57623;53.608;10.004;2024-03-23T14:05:24;1.53;;;1.03;;
1577;SDS011;57623;53.608;10.004;2024-03-23T14:07:50;2.30;;;1.20;;
1577;SDS011;57623;53.608;10.004;2024-03-23T14:10:17;2.90;;;1.30;;
1577;SDS011;57623;53.608;10.004;2024-03-23T14:12:43;1.93;;;1.30;;
1577;SDS011;57623;53.608;10.004;2024-03-23T14:15:12;3.37;;;1.63;;
1577;SDS011;57623;53.608;10.004;2024-03-23T14:17:38;2.00;;;1.03;;
1577;SDS011;57623;53.608;10.004;2024-03-23T14:20:06;3.27;;;1.00;;
1577;SDS011;57623;53.608;10.004;2024-03-23T14:22:34;1.43;;;0.80;;
1577;SDS011;57623;53.608;10.004;2024-03-23T14:25:01;1.13;;;0.90;;
1577;SDS011;57623;53.608;10.004;2024-03-23T14:27:28;2.40;;;1.13;;
1577;SDS011;57623;53.608;10.004;2024-03-23T14:29:56;1.93;;;1.37;;
1577;SDS011;57623;53.608;10.004;2024-03-23T14:32:23;2.10;;;1.00;;
1577;SDS011;57623;53.608;10.004;2024-03-23T14:34:51;1.70;;;1.00;;
1577;SDS011;57623;53.608;10.004;2024-03-23T14:37:19;1.43;;;1.20;;
1577;SDS011;57623;53.608;10.004;2024-03-23T14:39:46;2.43;;;1.10;;
1577;SDS011;57623;53.608;10.004;2024-03-23T14:42:12;2.13;;;1.10;;
1577;SDS011;57623;53.608;10.004;2024-03-23T14:44:39;4.40;;;1.43;;
1577;SDS011;57623;53.608;10.004;2024-03-23T14:47:05;2.47;;;0.90;;
1577;SDS011;57623;53.608;10.004;2024-03-23T14:49:34;1.70;;;1.30;;
1577;SDS011;57623;53.608;10.004;2024-03-23T14:52:00;2.80;;;1.50;;
1577;SDS011;57623;53.608;10.004;2024-03-23T14:54:27;1.40;;;1.00;;
1577;SDS011;57623;53.608;10.004;2024-03-23T14:56:54;5.50;;;1.83;;
1577;SDS011;57623;53.608;10.004;2024-03-23T14:59:21;3.60;;;1.50;;
1577;SDS011;57623;53.608;10.004;2024-03-23T15:01:48;1.50;;;1.30;;
1577;SDS011;57623;53.608;10.004;2024-03-23T15:04:14;4.17;;;1.50;;
1577;SDS011;57623;53.608;10.004;2024-03-23T15:06:43;4.00;;;1.23;;
1577;SDS011;57623;53.608;10.004;2024-03-23T15:09:11;1.30;;;0.83;;
1577;SDS011;57623;53.608;10.004;2024-03-23T15:11:39;1.47;;;0.70;;
1577;SDS011;57623;53.608;10.004;2024-03-23T15:14:06;1.40;;;0.80;;
1577;SDS011;57623;53.608;10.004;2024-03-23T15:16:32;1.13;;;0.87;;
1577;SDS011;57623;53.608;10.004;2024-03-23T15:18:59;2.43;;;1.00;;
1577;SDS011;57623;53.608;10.004;2024-03-23T15:21:26;3.03;;;0.80;;
1577;SDS011;57623;53.608;10.004;2024-03-23T15:23:54;0.80;;;0.67;;
1577;SDS011;57623;53.608;10.004;2024-03-23T15:26:21;1.70;;;0.90;;
1577;SDS011;57623;53.608;10.004;2024-03-23T15:28:48;2.63;;;1.00;;
1577;SDS011;57623;53.608;10.004;2024-03-23T15:31:35;2.50;;;0.80;;
1577;SDS011;57623;53.608;10.004;2024-03-23T15:34:02;1.57;;;1.47;;
1577;SDS011;57623;53.608;10.004;2024-03-23T15:36:29;1.33;;;1.20;;
1577;SDS011;57623;53.608;10.004;2024-03-23T15:38:58;1.20;;;0.87;;
1577;SDS011;57623;53.608;10.004;2024-03-23T15:41:24;2.80;;;1.27;;
1577;SDS011;57623;53.608;10.004;2024-03-23T15:43:51;4.23;;;1.30;;
1577;SDS011;57623;53.608;10.004;2024-03-23T15:46:18;3.53;;;1.60;;